sensor_id;sensor_type;location;lat;lon;timestamp;P1;durP1;ratioP1;P2;durP2;ratioP2
2638;SDS011;1329;51.384;7.122;2022-09-09T00:02:27;1.55;;;0.80;;
2638;SDS011;1329;51.384;7.122;2022-09-09T00:04:58;1.08;;;0.80;;
2638;SDS011;1329;51.384;7.122;2022-09-09T00:07:36;0.88;;;0.85;;
2638;SDS011;1329;51.384;7.122;2022-09-09T00:10:14;0.98;;;0.80;;
2638;SDS011;1329;51.384;7.122;2022-09-09T00:12:51;1.00;;;0.90;;
2638;SDS011;1329;51.384;7.122;2022-09-09T00:15:26;1.88;;;0.80;;
2638;SDS011;1329;51.384;7.122;2022-09-09T00:18:05;1.70;;;0.95;;
2638;SDS011;1329;51.384;7.122;2022-09-09T00:20:43;1.48;;;0.90;;
2638;SDS011;1329;51.384;7.122;2022-09-09T00:23:19;0.95;;;0.77;;
2638;SDS011;1329;51.384;7.122;2022-09-09T00:25:54;3.30;;;1.10;;
2638;SDS011;1329;51.384;7.122;2022-09-09T00:28:32;1.52;;;0.80;;
2638;SDS011;1329;51.384;7.122;2022-09-09T00:31:10;1.50;;;0.90;;
2638;SDS011;1329;51.384;7.122;2022-09-09T00:33:42;1.50;;;0.90;;
2638;SDS011;1329;51.384;7.122;2022-09-09T00:36:13;1.33;;;0.80;;
2638;SDS011;1329;51.384;7.122;2022-09-09T00:38:45;0.75;;;0.70;;
2638;SDS011;1329;51.384;7.122;2022-09-09T00:41:18;1.88;;;0.80;;
2638;SDS011;1329;51.384;7.122;2022-09-09T00:43:56;1.58;;;0.90;;
2638;SDS011;1329;51.384;7.122;2022-09-09T00:46:33;1.60;;;0.82;;
2638;SDS011;1329;51.384;7.122;2022-09-09T00:49:28;1.35;;;0.90;;
2638;SDS011;1329;51.384;7.122;2022-09-09T00:52:13;0.70;;;0.70;;
2638;SDS011;1329;51.384;7.122;2022-09-09T00:54:54;1.02;;;0.80;;
2638;SDS011;1329;51.384;7.122;2022-09-09T00:57:32;0.80;;;0.80;;
2638;SDS011;1329;51.384;7.122;2022-09-09T01:00:16;2.42;;;1.10;;
2638;SDS011;1329;51.384;7.122;2022-09-09T01:03:01;1.83;;;1.10;;
2638;SDS011;1329;51.384;7.122;2022-09-09T01:05:45;1.83;;;1.20;;
2638;SDS011;1329;51.384;7.122;2022-09-09T01:08:21;3.03;;;1.08;;
2638;SDS011;1329;51.384;7.122;2022-09-09T01:11:10;1.23;;;1.00;;
2638;SDS011;1329;51.384;7.122;2022-09-09T01:13:47;1.58;;;1.00;;
2638;SDS011;1329;51.384;7.122;2022-09-09T01:16:28;1.05;;;1.02;;
2638;SDS011;1329;51.384;7.122;2022-09-09T01:18:59;1.40;;;1.30;;
2638;SDS011;1329;51.384;7.122;2022-09-09T01:21:33;1.50;;;1.25;;
2638;SDS011;1329;51.384;7.122;2022-09-09T01:24:19;1.23;;;1.13;;
2638;SDS011;1329;51.384;7.122;2022-09-09T01:26:56;1.20;;;1.10;;
2638;SDS011;1329;51.384;7.122;2022-09-09T01:29:26;1.45;;;1.13;;
2638;SDS011;1329;51.384;7.122;2022-09-09T01:31:55;1.55;;;1.35;;
2638;SDS011;1329;51.384;7.122;2022-09-09T01:34:25;1.67;;;1.58;;
2638;SDS011;1329;51.384;7.122;2022-09-09T01:36:57;1.50;;;1.40;;
2638;SDS011;1329;51.384;7.122;2022-09-09T01:39:29;1.83;;;1.58;;
2638;SDS011;1329;51.384;7.122;2022-09-09T01:41:59;2.42;;;1.60;;
2638;SDS011;1329;51.384;7.122;2022-09-09T01:44:28;2.05;;;1.80;;
2638;SDS011;1329;51.384;7.122;2022-09-09T01:46:57;3.28;;;2.00;;
2638;SDS011;1329;51.384;7.122;2022-09-09T01:49:24;2.63;;;1.65;;
2638;SDS011;1329;51.384;7.122;2022-09-09T01:51:53;2.00;;;1.80;;
2638;SDS011;1329;51.384;7.122;2022-09-09T01:54:23;2.15;;;1.95;;
2638;SDS011;1329;51.384;7.122;2022-09-09T01:56:56;3.38;;;1.95;;
2638;SDS011;1329;51.384;7.122;2022-09-09T01:59:45;1.95;;;1.77;;
2638;SDS011;1329;51.384;7.122;2022-09-09T02:02:30;2.50;;;2.25;;
2638;SDS011;1329;51.384;7.122;2022-09-09T02:05:06;2.50;;;1.95;;
2638;SDS011;1329;51.384;7.122;2022-09-09T02:07:45;2.58;;;2.38;;
2638;SDS011;1329;51.384;7.122;2022-09-09T02:10:17;2.13;;;1.95;;
2638;SDS011;1329;51.384;7.122;2022-09-09T02:12:51;2.92;;;2.05;;
2638;SDS011;1329;51.384;7.122;2022-09-09T02:15:23;2.55;;;2.10;;
2638;SDS011;1329;51.384;7.122;2022-09-09T02:17:58;3.10;;;2.08;;
2638;SDS011;1329;51.384;7.122;2022-09-09T02:20:31;2.30;;;2.10;;
2638;SDS011;1329;51.384;7.122;2022-09-09T02:23:03;3.65;;;2.28;;
2638;SDS011;1329;51.384;7.122;2022-09-09T02:25:32;2.22;;;1.98;;
2638;SDS011;1329;51.384;7.122;2022-09-09T02:28:03;3.85;;;2.20;;
2638;SDS011;1329;51.384;7.122;2022-09-09T02:30:34;2.72;;;2.10;;
2638;SDS011;1329;51.384;7.122;2022-09-09T02:33:03;2.55;;;2.00;;
2638;SDS011;1329;51.384;7.122;2022-09-09T02:35:33;3.20;;;2.05;;
2638;SDS011;1329;51.384;7.122;2022-09-09T02:38:04;2.25;;;1.85;;
2638;SDS011;1329;51.384;7.122;2022-09-09T02:40:38;2.90;;;2.13;;
2638;SDS011;1329;51.384;7.122;2022-09-09T02:43:11;3.28;;;1.95;;
2638;SDS011;1329;51.384;7.122;2022-09-09T02:45:44;3.47;;;2.20;;
2638;SDS011;1329;51.384;7.122;2022-09-09T02:48:20;3.15;;;2.00;;
2638;SDS011;1329;51.384;7.122;2022-09-09T02:51:00;4.88;;;1.83;;
2638;SDS011;1329;51.384;7.122;2022-09-09T02:53:39;2.10;;;1.90;;
2638;SDS011;1329;51.384;7.122;2022-09-09T02:56:15;3.20;;;2.03;;
2638;SDS011;1329;51.384;7.122;2022-09-09T02:58:47;2.50;;;1.80;;
2638;SDS011;1329;51.384;7.122;2022-09-09T03:01:20;2.20;;;2.00;;
2638;SDS011;1329;51.384;7.122;2022-09-09T03:03:47;2.10;;;1.90;;
2638;SDS011;1329;51.384;7.122;2022-09-09T03:06:15;2.78;;;2.00;;
2638;SDS011;1329;51.384;7.122;2022-09-09T03:08:42;2.72;;;2.10;;
2638;SDS011;1329;51.384;7.122;2022-09-09T03:11:09;2.45;;;1.67;;
2638;SDS011;1329;51.384;7.122;2022-09-09T03:13:37;2.33;;;2.03;;
2638;SDS011;1329;51.384;7.122;2022-09-09T03:16:07;2.67;;;1.70;;
2638;SDS011;1329;51.384;7.122;2022-09-09T03:18:36;2.60;;;1.80;;
2638;SDS011;1329;51.384;7.122;2022-09-09T03:21:04;2.28;;;1.38;;
2638;SDS011;1329;51.384;7.122;2022-09-09T03:23:37;2.50;;;1.63;;
2638;SDS011;1329;51.384;7.122;2022-09-09T03:26:04;2.92;;;1.77;;
2638;SDS011;1329;51.384;7.122;2022-09-09T03:28:32;3.05;;;1.80;;
2638;SDS011;1329;51.384;7.122;2022-09-09T03:31:00;3.35;;;1.90;;
2638;SDS011;1329;51.384;7.122;2022-09-09T03:33:30;3.15;;;1.83;;
2638;SDS011;1329;51.384;7.122;2022-09-09T03:35:59;2.97;;;1.45;;
2638;SDS011;1329;51.384;7.122;2022-09-09T03:38:27;2.63;;;1.52;;
2638;SDS011;1329;51.384;7.122;2022-09-09T03:40:55;2.00;;;1.60;;
2638;SDS011;1329;51.384;7.122;2022-09-09T03:43:26;3.85;;;1.80;;
2638;SDS011;1329;51.384;7.122;2022-09-09T03:45:54;2.65;;;2.10;;
2638;SDS011;1329;51.384;7.122;2022-09-09T03:48:22;2.45;;;1.40;;
2638;SDS011;1329;51.384;7.122;2022-09-09T03:50:52;2.25;;;1.42;;
2638;SDS011;1329;51.384;7.122;2022-09-09T03:53:21;2.72;;;1.70;;
2638;SDS011;1329;51.384;7.122;2022-09-09T03:55:51;3.03;;;1.70;;
2638;SDS011;1329;51.384;7.122;2022-09-09T03:58:21;1.52;;;1.42;;
2638;SDS011;1329;51.384;7.122;2022-09-09T04:00:55;1.63;;;1.40;;
2638;SDS011;1329;51.384;7.122;2022-09-09T04:03:24;3.80;;;1.70;;
2638;SDS011;1329;51.384;7.122;2022-09-09T04:05:56;2.58;;;1.65;;
2638;SDS011;1329;51.384;7.122;2022-09-09T04:08:27;2.72;;;1.65;;
2638;SDS011;1329;51.384;7.122;2022-09-09T04:10:56;2.28;;;1.50;;
2638;SDS011;1329;51.384;7.122;2022-09-09T04:13:25;1.98;;;1.70;;
2638;SDS011;1329;51.384;7.122;2022-09-09T04:15:53;1.80;;;1.42;;
2638;SDS011;1329;51.384;7.122;2022-09-09T04:18:23;2.97;;;1.77;;
2638;SDS011;1329;51.384;7.122;2022-09-09T04:21:00;2.22;;;1.70;;
2638;SDS011;1329;51.384;7.122;2022-09-09T04:23:30;3.28;;;1.70;;
2638;SDS011;1329;51.384;7.122;2022-09-09T04:25:59;2.63;;;1.60;;
2638;SDS011;1329;51.384;7.122;2022-09-09T04:28:30;3.83;;;1.75;;
2638;SDS011;1329;51.384;7.122;2022-09-09T04:31:03;2.85;;;1.70;;
2638;SDS011;1329;51.384;7.122;2022-09-09T04:33:36;4.50;;;1.70;;
2638;SDS011;1329;51.384;7.122;2022-09-09T04:36:06;2.33;;;1.50;;
2638;SDS011;1329;51.384;7.122;2022-09-09T04:38:33;2.05;;;1.83;;
2638;SDS011;1329;51.384;7.122;2022-09-09T04:41:07;2.65;;;1.60;;
2638;SDS011;1329;51.384;7.122;2022-09-09T04:43:38;3.13;;;1.63;;
2638;SDS011;1329;51.384;7.122;2022-09-09T04:46:06;2.83;;;1.85;;
2638;SDS011;1329;51.384;7.122;2022-09-09T04:48:36;1.67;;;1.50;;
2638;SDS011;1329;51.384;7.122;2022-09-09T04:51:06;4.90;;;2.10;;
2638;SDS011;1329;51.384;7.122;2022-09-09T04:53:40;3.90;;;1.80;;
2638;SDS011;1329;51.384;7.122;2022-09-09T04:56:08;3.05;;;1.65;;
2638;SDS011;1329;51.384;7.122;2022-09-09T04:58:38;3.97;;;2.13;;
2638;SDS011;1329;51.384;7.122;2022-09-09T05:01:09;2.47;;;1.92;;
2638;SDS011;1329;51.384;7.122;2022-09-09T05:03:52;2.53;;;1.80;;
2638;SDS011;1329;51.384;7.122;2022-09-09T05:06:21;3.60;;;2.10;;
2638;SDS011;1329;51.384;7.122;2022-09-09T05:08:49;3.17;;;2.00;;
2638;SDS011;1329;51.384;7.122;2022-09-09T05:11:18;3.35;;;1.95;;
2638;SDS011;1329;51.384;7.122;2022-09-09T05:13:51;2.45;;;1.80;;
2638;SDS011;1329;51.384;7.122;2022-09-09T05:16:20;2.40;;;1.90;;
2638;SDS011;1329;51.384;7.122;2022-09-09T05:18:52;3.00;;;2.03;;
2638;SDS011;1329;51.384;7.122;2022-09-09T05:21:23;2.72;;;1.80;;
2638;SDS011;1329;51.384;7.122;2022-09-09T05:23:56;2.90;;;2.05;;
2638;SDS011;1329;51.384;7.122;2022-09-09T05:26:23;4.32;;;1.80;;
2638;SDS011;1329;51.384;7.122;2022-09-09T05:28:59;2.38;;;1.88;;
2638;SDS011;1329;51.384;7.122;2022-09-09T05:31:26;3.20;;;1.88;;
2638;SDS011;1329;51.384;7.122;2022-09-09T05:33:57;2.53;;;1.90;;
2638;SDS011;1329;51.384;7.122;2022-09-09T05:36:32;2.05;;;1.65;;
2638;SDS011;1329;51.384;7.122;2022-09-09T05:38:59;2.83;;;1.80;;
2638;SDS011;1329;51.384;7.122;2022-09-09T05:41:27;3.55;;;2.00;;
2638;SDS011;1329;51.384;7.122;2022-09-09T05:43:58;2.85;;;1.70;;
2638;SDS011;1329;51.384;7.122;2022-09-09T05:46:26;2.50;;;1.60;;
2638;SDS011;1329;51.384;7.122;2022-09-09T05:48:54;1.67;;;1.33;;
2638;SDS011;1329;51.384;7.122;2022-09-09T05:51:26;3.20;;;1.80;;
2638;SDS011;1329;51.384;7.122;2022-09-09T05:54:02;3.10;;;1.70;;
2638;SDS011;1329;51.384;7.122;2022-09-09T05:56:32;3.05;;;1.90;;
2638;SDS011;1329;51.384;7.122;2022-09-09T05:59:01;2.50;;;1.80;;
2638;SDS011;1329;51.384;7.122;2022-09-09T06:01:36;2.63;;;1.77;;
2638;SDS011;1329;51.384;7.122;2022-09-09T06:04:07;3.55;;;1.92;;
2638;SDS011;1329;51.384;7.122;2022-09-09T06:06:35;3.13;;;2.05;;
2638;SDS011;1329;51.384;7.122;2022-09-09T06:09:13;4.20;;;2.03;;
2638;SDS011;1329;51.384;7.122;2022-09-09T06:11:43;2.35;;;1.95;;
2638;SDS011;1329;51.384;7.122;2022-09-09T06:14:14;3.92;;;2.03;;
2638;SDS011;1329;51.384;7.122;2022-09-09T06:16:43;3.00;;;1.90;;
2638;SDS011;1329;51.384;7.122;2022-09-09T06:19:11;4.05;;;1.75;;
2638;SDS011;1329;51.384;7.122;2022-09-09T06:21:39;5.00;;;1.83;;
2638;SDS011;1329;51.384;7.122;2022-09-09T06:24:07;3.53;;;1.83;;
2638;SDS011;1329;51.384;7.122;2022-09-09T06:26:37;3.45;;;1.77;;
2638;SDS011;1329;51.384;7.122;2022-09-09T06:29:06;3.45;;;1.85;;
2638;SDS011;1329;51.384;7.122;2022-09-09T06:31:35;3.10;;;1.60;;
2638;SDS011;1329;51.384;7.122;2022-09-09T06:34:04;2.80;;;1.85;;
2638;SDS011;1329;51.384;7.122;2022-09-09T06:36:33;3.45;;;1.80;;
2638;SDS011;1329;51.384;7.122;2022-09-09T06:39:03;1.85;;;1.60;;
2638;SDS011;1329;51.384;7.122;2022-09-09T06:41:32;1.80;;;1.50;;
2638;SDS011;1329;51.384;7.122;2022-09-09T06:44:02;3.83;;;1.95;;
2638;SDS011;1329;51.384;7.122;2022-09-09T06:46:30;4.75;;;1.77;;
2638;SDS011;1329;51.384;7.122;2022-09-09T06:49:00;2.08;;;1.63;;
2638;SDS011;1329;51.384;7.122;2022-09-09T06:51:29;3.65;;;1.70;;
2638;SDS011;1329;51.384;7.122;2022-09-09T06:54:01;3.35;;;1.88;;
2638;SDS011;1329;51.384;7.122;2022-09-09T06:56:30;4.50;;;1.67;;
2638;SDS011;1329;51.384;7.122;2022-09-09T06:59:00;2.90;;;1.60;;
2638;SDS011;1329;51.384;7.122;2022-09-09T07:01:31;2.97;;;1.60;;
2638;SDS011;1329;51.384;7.122;2022-09-09T07:04:00;2.92;;;1.67;;
2638;SDS011;1329;51.384;7.122;2022-09-09T07:06:29;3.63;;;1.70;;
2638;SDS011;1329;51.384;7.122;2022-09-09T07:09:00;2.65;;;1.70;;
2638;SDS011;1329;51.384;7.122;2022-09-09T07:11:31;3.05;;;1.40;;
2638;SDS011;1329;51.384;7.122;2022-09-09T07:14:02;2.08;;;1.40;;
2638;SDS011;1329;51.384;7.122;2022-09-09T07:16:32;2.88;;;1.40;;
2638;SDS011;1329;51.384;7.122;2022-09-09T07:19:04;2.00;;;1.50;;
2638;SDS011;1329;51.384;7.122;2022-09-09T07:21:32;2.72;;;1.65;;
2638;SDS011;1329;51.384;7.122;2022-09-09T07:24:03;2.78;;;1.27;;
2638;SDS011;1329;51.384;7.122;2022-09-09T07:26:34;2.58;;;1.40;;
2638;SDS011;1329;51.384;7.122;2022-09-09T07:29:11;2.00;;;1.30;;
2638;SDS011;1329;51.384;7.122;2022-09-09T07:31:39;1.60;;;1.10;;
2638;SDS011;1329;51.384;7.122;2022-09-09T07:34:07;1.98;;;1.30;;
2638;SDS011;1329;51.384;7.122;2022-09-09T07:36:36;2.38;;;1.25;;
2638;SDS011;1329;51.384;7.122;2022-09-09T07:39:06;3.22;;;1.70;;
2638;SDS011;1329;51.384;7.122;2022-09-09T07:41:35;2.40;;;1.40;;
2638;SDS011;1329;51.384;7.122;2022-09-09T07:44:08;4.35;;;1.65;;
2638;SDS011;1329;51.384;7.122;2022-09-09T07:46:38;2.28;;;1.30;;
2638;SDS011;1329;51.384;7.122;2022-09-09T07:49:08;1.88;;;1.23;;
2638;SDS011;1329;51.384;7.122;2022-09-09T07:51:38;2.08;;;1.27;;
2638;SDS011;1329;51.384;7.122;2022-09-09T07:54:08;3.22;;;1.60;;
2638;SDS011;1329;51.384;7.122;2022-09-09T07:56:38;1.92;;;1.38;;
2638;SDS011;1329;51.384;7.122;2022-09-09T07:59:10;3.70;;;1.45;;
2638;SDS011;1329;51.384;7.122;2022-09-09T08:01:39;1.63;;;1.30;;
2638;SDS011;1329;51.384;7.122;2022-09-09T08:04:11;3.47;;;1.45;;
2638;SDS011;1329;51.384;7.122;2022-09-09T08:06:42;2.00;;;1.30;;
2638;SDS011;1329;51.384;7.122;2022-09-09T08:09:13;2.22;;;1.17;;
2638;SDS011;1329;51.384;7.122;2022-09-09T08:11:41;3.78;;;1.55;;
2638;SDS011;1329;51.384;7.122;2022-09-09T08:14:10;3.33;;;1.58;;
2638;SDS011;1329;51.384;7.122;2022-09-09T08:16:39;2.60;;;1.30;;
2638;SDS011;1329;51.384;7.122;2022-09-09T08:19:09;2.75;;;1.30;;
2638;SDS011;1329;51.384;7.122;2022-09-09T08:21:37;2.85;;;1.52;;
2638;SDS011;1329;51.384;7.122;2022-09-09T08:24:06;3.35;;;1.60;;
2638;SDS011;1329;51.384;7.122;2022-09-09T08:26:37;2.25;;;1.30;;
2638;SDS011;1329;51.384;7.122;2022-09-09T08:29:08;4.28;;;1.70;;
2638;SDS011;1329;51.384;7.122;2022-09-09T08:31:40;3.13;;;1.55;;
2638;SDS011;1329;51.384;7.122;2022-09-09T08:34:09;2.78;;;1.40;;
2638;SDS011;1329;51.384;7.122;2022-09-09T08:36:38;3.25;;;1.42;;
2638;SDS011;1329;51.384;7.122;2022-09-09T08:39:08;2.63;;;1.40;;
2638;SDS011;1329;51.384;7.122;2022-09-09T08:41:44;3.55;;;1.50;;
2638;SDS011;1329;51.384;7.122;2022-09-09T08:44:41;1.92;;;1.40;;
2638;SDS011;1329;51.384;7.122;2022-09-09T08:47:24;4.57;;;1.75;;
2638;SDS011;1329;51.384;7.122;2022-09-09T08:50:04;3.65;;;1.65;;
2638;SDS011;1329;51.384;7.122;2022-09-09T08:52:45;2.20;;;1.33;;
2638;SDS011;1329;51.384;7.122;2022-09-09T08:55:24;3.92;;;1.73;;
2638;SDS011;1329;51.384;7.122;2022-09-09T08:57:57;2.58;;;1.30;;
2638;SDS011;1329;51.384;7.122;2022-09-09T09:00:34;4.25;;;1.40;;
2638;SDS011;1329;51.384;7.122;2022-09-09T09:03:19;3.53;;;1.50;;
2638;SDS011;1329;51.384;7.122;2022-09-09T09:05:59;3.70;;;1.60;;
2638;SDS011;1329;51.384;7.122;2022-09-09T09:08:35;3.25;;;1.60;;
2638;SDS011;1329;51.384;7.122;2022-09-09T09:11:10;2.70;;;1.50;;
2638;SDS011;1329;51.384;7.122;2022-09-09T09:13:38;3.30;;;1.92;;
2638;SDS011;1329;51.384;7.122;2022-09-09T09:16:20;2.08;;;1.30;;
2638;SDS011;1329;51.384;7.122;2022-09-09T09:18:57;2.55;;;1.30;;
2638;SDS011;1329;51.384;7.122;2022-09-09T09:21:28;2.80;;;1.50;;
2638;SDS011;1329;51.384;7.122;2022-09-09T09:24:03;3.47;;;1.60;;
2638;SDS011;1329;51.384;7.122;2022-09-09T09:26:36;3.17;;;1.40;;
2638;SDS011;1329;51.384;7.122;2022-09-09T09:29:07;1.67;;;1.25;;
2638;SDS011;1329;51.384;7.122;2022-09-09T09:31:41;3.65;;;1.35;;
2638;SDS011;1329;51.384;7.122;2022-09-09T09:34:13;3.30;;;1.38;;
2638;SDS011;1329;51.384;7.122;2022-09-09T09:36:43;3.55;;;1.48;;
2638;SDS011;1329;51.384;7.122;2022-09-09T09:39:22;2.85;;;1.10;;
2638;SDS011;1329;51.384;7.122;2022-09-09T09:41:51;1.77;;;1.17;;
2638;SDS011;1329;51.384;7.122;2022-09-09T09:44:23;2.42;;;1.35;;
2638;SDS011;1329;51.384;7.122;2022-09-09T09:47:04;2.53;;;1.33;;
2638;SDS011;1329;51.384;7.122;2022-09-09T09:49:34;2.97;;;1.23;;
2638;SDS011;1329;51.384;7.122;2022-09-09T09:52:02;3.10;;;1.20;;
2638;SDS011;1329;51.384;7.122;2022-09-09T09:54:31;2.95;;;1.50;;
2638;SDS011;1329;51.384;7.122;2022-09-09T09:57:08;3.35;;;1.27;;
2638;SDS011;1329;51.384;7.122;2022-09-09T09:59:37;2.63;;;1.20;;
2638;SDS011;1329;51.384;7.122;2022-09-09T10:02:17;2.47;;;1.10;;
2638;SDS011;1329;51.384;7.122;2022-09-09T10:04:59;3.05;;;1.30;;
2638;SDS011;1329;51.384;7.122;2022-09-09T10:07:28;1.85;;;1.00;;
2638;SDS011;1329;51.384;7.122;2022-09-09T10:09:58;4.05;;;1.30;;
2638;SDS011;1329;51.384;7.122;2022-09-09T10:12:34;4.70;;;1.30;;
2638;SDS011;1329;51.384;7.122;2022-09-09T10:15:18;1.55;;;1.10;;
2638;SDS011;1329;51.384;7.122;2022-09-09T10:18:03;4.50;;;1.20;;
2638;SDS011;1329;51.384;7.122;2022-09-09T10:20:50;2.55;;;1.00;;
2638;SDS011;1329;51.384;7.122;2022-09-09T10:23:35;3.72;;;1.20;;
2638;SDS011;1329;51.384;7.122;2022-09-09T10:26:27;3.22;;;1.10;;
2638;SDS011;1329;51.384;7.122;2022-09-09T10:32:06;6.20;;;1.30;;
2638;SDS011;1329;51.384;7.122;2022-09-09T10:34:55;2.85;;;1.17;;
2638;SDS011;1329;51.384;7.122;2022-09-09T10:37:32;3.05;;;1.25;;
2638;SDS011;1329;51.384;7.122;2022-09-09T10:40:15;2.15;;;1.10;;
2638;SDS011;1329;51.384;7.122;2022-09-09T10:42:56;1.63;;;0.90;;
2638;SDS011;1329;51.384;7.122;2022-09-09T10:45:35;1.52;;;0.77;;
2638;SDS011;1329;51.384;7.122;2022-09-09T10:48:17;1.92;;;0.95;;
2638;SDS011;1329;51.384;7.122;2022-09-09T10:51:01;2.40;;;0.90;;
2638;SDS011;1329;51.384;7.122;2022-09-09T10:54:05;1.35;;;0.90;;
2638;SDS011;1329;51.384;7.122;2022-09-09T10:56:49;1.13;;;0.82;;
2638;SDS011;1329;51.384;7.122;2022-09-09T10:59:23;2.58;;;0.90;;
2638;SDS011;1329;51.384;7.122;2022-09-09T11:01:54;1.40;;;0.73;;
2638;SDS011;1329;51.384;7.122;2022-09-09T11:04:28;3.00;;;0.90;;
2638;SDS011;1329;51.384;7.122;2022-09-09T11:07:05;2.35;;;1.10;;
2638;SDS011;1329;51.384;7.122;2022-09-09T11:09:36;1.80;;;0.90;;
2638;SDS011;1329;51.384;7.122;2022-09-09T11:12:10;1.67;;;0.82;;
2638;SDS011;1329;51.384;7.122;2022-09-09T11:14:45;1.70;;;0.90;;
2638;SDS011;1329;51.384;7.122;2022-09-09T11:17:19;1.65;;;0.93;;
2638;SDS011;1329;51.384;7.122;2022-09-09T11:19:54;2.25;;;0.80;;
2638;SDS011;1329;51.384;7.122;2022-09-09T11:22:25;2.08;;;1.10;;
2638;SDS011;1329;51.384;7.122;2022-09-09T11:24:57;3.38;;;1.00;;
2638;SDS011;1329;51.384;7.122;2022-09-09T11:27:31;2.45;;;0.90;;
2638;SDS011;1329;51.384;7.122;2022-09-09T11:30:18;1.33;;;0.80;;
2638;SDS011;1329;51.384;7.122;2022-09-09T11:33:03;2.72;;;0.88;;
2638;SDS011;1329;51.384;7.122;2022-09-09T11:36:16;1.08;;;0.75;;
2638;SDS011;1329;51.384;7.122;2022-09-09T11:39:02;1.77;;;0.90;;
2638;SDS011;1329;51.384;7.122;2022-09-09T11:42:05;2.50;;;1.00;;
2638;SDS011;1329;51.384;7.122;2022-09-09T11:44:37;1.85;;;0.80;;
2638;SDS011;1329;51.384;7.122;2022-09-09T11:47:15;1.95;;;0.90;;
2638;SDS011;1329;51.384;7.122;2022-09-09T11:49:49;1.65;;;1.02;;
2638;SDS011;1329;51.384;7.122;2022-09-09T11:52:21;2.47;;;0.90;;
2638;SDS011;1329;51.384;7.122;2022-09-09T11:54:54;1.40;;;0.80;;
2638;SDS011;1329;51.384;7.122;2022-09-09T11:57:25;2.63;;;0.80;;
2638;SDS011;1329;51.384;7.122;2022-09-09T11:59:58;3.83;;;1.00;;
2638;SDS011;1329;51.384;7.122;2022-09-09T12:02:26;2.58;;;0.90;;
2638;SDS011;1329;51.384;7.122;2022-09-09T12:04:59;1.88;;;1.10;;
2638;SDS011;1329;51.384;7.122;2022-09-09T12:07:35;3.08;;;0.80;;
2638;SDS011;1329;51.384;7.122;2022-09-09T12:10:21;1.92;;;0.82;;
2638;SDS011;1329;51.384;7.122;2022-09-09T12:13:07;2.13;;;1.05;;
2638;SDS011;1329;51.384;7.122;2022-09-09T12:15:46;2.10;;;0.80;;
2638;SDS011;1329;51.384;7.122;2022-09-09T12:18:16;2.08;;;0.90;;
2638;SDS011;1329;51.384;7.122;2022-09-09T12:20:52;2.70;;;0.80;;
2638;SDS011;1329;51.384;7.122;2022-09-09T12:23:30;2.20;;;1.00;;
2638;SDS011;1329;51.384;7.122;2022-09-09T12:26:13;1.77;;;1.15;;
2638;SDS011;1329;51.384;7.122;2022-09-09T12:28:57;2.50;;;1.00;;
2638;SDS011;1329;51.384;7.122;2022-09-09T12:31:47;2.15;;;1.15;;
2638;SDS011;1329;51.384;7.122;2022-09-09T12:34:28;1.42;;;0.80;;
2638;SDS011;1329;51.384;7.122;2022-09-09T12:37:06;3.60;;;1.00;;
2638;SDS011;1329;51.384;7.122;2022-09-09T12:39:47;1.33;;;0.90;;
2638;SDS011;1329;51.384;7.122;2022-09-09T12:42:23;2.00;;;1.00;;
2638;SDS011;1329;51.384;7.122;2022-09-09T12:44:53;2.13;;;1.02;;
2638;SDS011;1329;51.384;7.122;2022-09-09T12:47:25;1.90;;;0.90;;
2638;SDS011;1329;51.384;7.122;2022-09-09T12:50:03;2.25;;;0.80;;
2638;SDS011;1329;51.384;7.122;2022-09-09T12:52:32;1.95;;;1.00;;
2638;SDS011;1329;51.384;7.122;2022-09-09T12:55:04;2.33;;;1.00;;
2638;SDS011;1329;51.384;7.122;2022-09-09T12:57:38;1.85;;;0.95;;
2638;SDS011;1329;51.384;7.122;2022-09-09T13:00:12;2.10;;;1.02;;
2638;SDS011;1329;51.384;7.122;2022-09-09T13:02:48;2.35;;;1.20;;
2638;SDS011;1329;51.384;7.122;2022-09-09T13:05:19;2.20;;;1.40;;
2638;SDS011;1329;51.384;7.122;2022-09-09T13:07:50;1.70;;;1.25;;
2638;SDS011;1329;51.384;7.122;2022-09-09T13:10:21;1.60;;;1.05;;
2638;SDS011;1329;51.384;7.122;2022-09-09T13:12:55;1.98;;;1.10;;
2638;SDS011;1329;51.384;7.122;2022-09-09T13:15:23;1.13;;;1.02;;
2638;SDS011;1329;51.384;7.122;2022-09-09T13:17:55;2.35;;;1.10;;
2638;SDS011;1329;51.384;7.122;2022-09-09T13:20:28;1.60;;;1.00;;
2638;SDS011;1329;51.384;7.122;2022-09-09T13:22:56;2.13;;;1.10;;
2638;SDS011;1329;51.384;7.122;2022-09-09T13:25:24;2.10;;;1.08;;
2638;SDS011;1329;51.384;7.122;2022-09-09T13:27:58;2.10;;;1.15;;
2638;SDS011;1329;51.384;7.122;2022-09-09T13:30:28;1.48;;;1.10;;
2638;SDS011;1329;51.384;7.122;2022-09-09T13:33:03;2.45;;;1.25;;
2638;SDS011;1329;51.384;7.122;2022-09-09T13:35:49;3.60;;;1.25;;
2638;SDS011;1329;51.384;7.122;2022-09-09T13:38:23;1.58;;;1.20;;
2638;SDS011;1329;51.384;7.122;2022-09-09T13:40:52;2.40;;;1.35;;
2638;SDS011;1329;51.384;7.122;2022-09-09T13:43:24;2.05;;;1.05;;
2638;SDS011;1329;51.384;7.122;2022-09-09T13:45:53;3.75;;;1.33;;
2638;SDS011;1329;51.384;7.122;2022-09-09T13:48:24;2.15;;;1.13;;
2638;SDS011;1329;51.384;7.122;2022-09-09T13:50:56;1.90;;;1.23;;
2638;SDS011;1329;51.384;7.122;2022-09-09T13:53:30;2.47;;;1.27;;
2638;SDS011;1329;51.384;7.122;2022-09-09T13:55:58;1.65;;;1.20;;
2638;SDS011;1329;51.384;7.122;2022-09-09T13:58:27;2.13;;;1.13;;
2638;SDS011;1329;51.384;7.122;2022-09-09T14:00:59;1.92;;;1.02;;
2638;SDS011;1329;51.384;7.122;2022-09-09T14:03:27;1.75;;;1.10;;
2638;SDS011;1329;51.384;7.122;2022-09-09T14:06:11;2.72;;;1.42;;
2638;SDS011;1329;51.384;7.122;2022-09-09T14:08:51;2.03;;;1.10;;
2638;SDS011;1329;51.384;7.122;2022-09-09T14:11:26;1.58;;;1.00;;
2638;SDS011;1329;51.384;7.122;2022-09-09T14:14:08;2.00;;;1.00;;
2638;SDS011;1329;51.384;7.122;2022-09-09T14:16:37;2.97;;;1.00;;
2638;SDS011;1329;51.384;7.122;2022-09-09T14:19:10;2.75;;;1.00;;
2638;SDS011;1329;51.384;7.122;2022-09-09T14:21:46;1.10;;;0.98;;
2638;SDS011;1329;51.384;7.122;2022-09-09T14:24:16;1.33;;;1.02;;
2638;SDS011;1329;51.384;7.122;2022-09-09T14:26:53;1.38;;;1.20;;
2638;SDS011;1329;51.384;7.122;2022-09-09T14:29:41;1.48;;;1.10;;
2638;SDS011;1329;51.384;7.122;2022-09-09T14:32:28;1.65;;;1.05;;
2638;SDS011;1329;51.384;7.122;2022-09-09T14:35:05;2.50;;;1.23;;
2638;SDS011;1329;51.384;7.122;2022-09-09T14:37:55;2.03;;;1.20;;
2638;SDS011;1329;51.384;7.122;2022-09-09T14:40:46;1.85;;;1.27;;
2638;SDS011;1329;51.384;7.122;2022-09-09T14:43:31;1.45;;;1.00;;
2638;SDS011;1329;51.384;7.122;2022-09-09T14:46:09;2.17;;;1.30;;
2638;SDS011;1329;51.384;7.122;2022-09-09T14:48:51;1.55;;;1.20;;
2638;SDS011;1329;51.384;7.122;2022-09-09T14:51:44;1.85;;;1.30;;
2638;SDS011;1329;51.384;7.122;2022-09-09T14:54:40;2.90;;;1.30;;
2638;SDS011;1329;51.384;7.122;2022-09-09T14:57:26;1.83;;;1.10;;
2638;SDS011;1329;51.384;7.122;2022-09-09T15:00:15;2.13;;;1.50;;
2638;SDS011;1329;51.384;7.122;2022-09-09T15:03:16;1.85;;;1.40;;
2638;SDS011;1329;51.384;7.122;2022-09-09T15:06:34;1.60;;;1.15;;
2638;SDS011;1329;51.384;7.122;2022-09-09T15:09:23;1.73;;;1.30;;
2638;SDS011;1329;51.384;7.122;2022-09-09T15:11:59;1.73;;;0.95;;
2638;SDS011;1329;51.384;7.122;2022-09-09T15:14:42;1.40;;;0.60;;
2638;SDS011;1329;51.384;7.122;2022-09-09T15:17:17;1.52;;;0.70;;
2638;SDS011;1329;51.384;7.122;2022-09-09T15:19:50;1.38;;;0.70;;
2638;SDS011;1329;51.384;7.122;2022-09-09T15:22:27;0.60;;;0.60;;
2638;SDS011;1329;51.384;7.122;2022-09-09T15:25:02;0.82;;;0.60;;
2638;SDS011;1329;51.384;7.122;2022-09-09T15:27:38;0.75;;;0.50;;
2638;SDS011;1329;51.384;7.122;2022-09-09T15:30:07;0.95;;;0.45;;
2638;SDS011;1329;51.384;7.122;2022-09-09T15:32:36;1.33;;;0.73;;
2638;SDS011;1329;51.384;7.122;2022-09-09T15:35:06;0.50;;;0.50;;
2638;SDS011;1329;51.384;7.122;2022-09-09T15:37:34;0.88;;;0.43;;
2638;SDS011;1329;51.384;7.122;2022-09-09T15:40:08;0.90;;;0.68;;
2638;SDS011;1329;51.384;7.122;2022-09-09T15:42:40;0.90;;;0.60;;
2638;SDS011;1329;51.384;7.122;2022-09-09T15:45:12;0.95;;;0.77;;
2638;SDS011;1329;51.384;7.122;2022-09-09T15:47:40;1.00;;;0.75;;
2638;SDS011;1329;51.384;7.122;2022-09-09T15:50:13;1.73;;;0.80;;
2638;SDS011;1329;51.384;7.122;2022-09-09T15:52:46;0.98;;;0.95;;
2638;SDS011;1329;51.384;7.122;2022-09-09T15:55:18;1.38;;;0.80;;
2638;SDS011;1329;51.384;7.122;2022-09-09T15:57:46;1.10;;;0.80;;
2638;SDS011;1329;51.384;7.122;2022-09-09T16:00:14;1.00;;;0.70;;
2638;SDS011;1329;51.384;7.122;2022-09-09T16:02:42;0.68;;;0.68;;